Time;durP1;ratioP1;P1;durP2;ratioP2;P2;SDS_P1;SDS_P2;PMS_P1;PMS_P2;Temp;Humidity;BMP_temperature;BMP_pressure;BME280_temperature;BME280_humidity;BME280_pressure;Samples;Min_cycle;Max_cycle;Signal;HPM_P1;HPM_P2
2021/09/01 00:02:23;;;;;;;7.35;2.13;;;17.50;84.10;;;;;;5044417;28;20017;-66
2021/09/01 00:04:48;;;;;;;7.80;2.63;;;17.50;84.20;;;;;;5069176;28;20120;-66
2021/09/01 00:07:14;;;;;;;6.30;2.13;;;17.50;84.20;;;;;;5049096;28;20048;-66
2021/09/01 00:09:40;;;;;;;6.53;2.22;;;17.50;84.20;;;;;;5051349;28;20443;-66
2021/09/01 00:12:06;;;;;;;6.00;2.03;;;17.50;84.30;;;;;;5063828;28;20028;-66
2021/09/01 00:14:32;;;;;;;6.28;1.80;;;17.50;84.30;;;;;;5065808;28;20060;-66
2021/09/01 00:16:58;;;;;;;6.60;1.92;;;17.50;84.30;;;;;;5068087;28;20099;-66
2021/09/01 00:19:23;;;;;;;8.82;2.15;;;17.50;84.30;;;;;;5068582;28;20384;-66
2021/09/01 00:21:49;;;;;;;10.25;2.72;;;17.50;84.50;;;;;;5064237;28;20452;-66
2021/09/01 00:24:16;;;;;;;5.65;1.92;;;17.50;84.60;;;;;;5066220;28;20034;-66
2021/09/01 00:26:42;;;;;;;7.38;2.45;;;17.40;84.60;;;;;;5071758;28;20036;-66
2021/09/01 00:29:07;;;;;;;6.10;2.17;;;17.40;85.00;;;;;;5066904;28;20024;-66
2021/09/01 00:31:33;;;;;;;6.05;2.08;;;17.40;85.30;;;;;;5052979;28;20020;-66
2021/09/01 00:33:59;;;;;;;6.88;2.22;;;17.30;85.30;;;;;;5049722;28;20020;-66
2021/09/01 00:36:24;;;;;;;5.78;2.10;;;17.30;85.40;;;;;;5060158;28;20078;-66
2021/09/01 00:38:50;;;;;;;7.53;2.03;;;17.30;85.40;;;;;;5058283;28;20055;-66
2021/09/01 00:41:26;;;;;;;6.05;2.03;;;17.40;85.40;;;;;;5061313;28;20096;-66
2021/09/01 00:43:53;;;;;;;5.32;1.70;;;17.40;85.30;;;;;;5063098;28;20017;-66
2021/09/01 00:46:20;;;;;;;4.30;2.05;;;17.40;85.40;;;;;;5063673;28;20115;-66
2021/09/01 00:48:46;;;;;;;7.50;2.20;;;17.40;85.40;;;;;;5063662;28;20029;-66
2021/09/01 00:51:12;;;;;;;6.80;2.33;;;17.40;85.40;;;;;;5063977;28;20427;-66
2021/09/01 00:53:43;;;;;;;7.85;2.95;;;17.40;85.40;;;;;;5066834;28;20029;-66
2021/09/01 00:56:17;;;;;;;7.82;1.92;;;17.40;85.40;;;;;;5062680;28;20028;-66
2021/09/01 00:58:44;;;;;;;7.43;2.50;;;17.30;85.40;;;;;;5062789;28;20021;-66
2021/09/01 01:03:38;;;;;;;5.03;1.65;;;17.30;85.60;;;;;;5069294;28;20024;-66
2021/09/01 01:06:04;;;;;;;6.38;2.00;;;17.30;85.60;;;;;;5044093;28;20112;-66
2021/09/01 01:08:30;;;;;;;8.32;1.90;;;17.30;85.60;;;;;;5066645;28;20094;-66
2021/09/01 01:10:57;;;;;;;7.30;1.88;;;17.30;85.60;;;;;;5061238;28;20032;-66
2021/09/01 01:13:23;;;;;;;5.00;1.75;;;17.30;85.60;;;;;;5069925;28;20056;-66
2021/09/01 01:15:48;;;;;;;4.60;1.45;;;17.30;85.60;;;;;;5041706;28;20055;-66
2021/09/01 01:18:14;;;;;;;7.03;2.13;;;17.30;85.50;;;;;;5064471;28;20029;-66
2021/09/01 01:20:40;;;;;;;5.05;1.85;;;17.30;85.60;;;;;;5063764;28;20029;-66
2021/09/01 01:23:07;;;;;;;7.50;1.75;;;17.30;85.60;;;;;;5067697;28;20032;-66
2021/09/01 01:25:34;;;;;;;6.82;2.05;;;17.30;85.60;;;;;;5068805;28;20015;-66
2021/09/01 01:28:00;;;;;;;8.25;2.20;;;17.30;85.60;;;;;;5064491;28;20021;-66
2021/09/01 01:30:26;;;;;;;5.65;1.73;;;17.20;85.60;;;;;;5067090;28;20095;-66
2021/09/01 01:32:53;;;;;;;5.78;1.88;;;17.20;85.60;;;;;;5064449;28;20503;-66
2021/09/01 01:35:37;;;;;;;8.40;2.03;;;17.20;85.70;;;;;;5062393;28;20017;-66
2021/09/01 01:38:05;;;;;;;6.57;2.40;;;17.20;85.60;;;;;;5062214;28;20090;-66
2021/09/01 01:40:31;;;;;;;5.03;1.80;;;17.20;85.80;;;;;;5064462;28;20032;-66
2021/09/01 01:42:57;;;;;;;8.68;2.10;;;17.20;85.80;;;;;;5061139;28;20025;-66
2021/09/01 01:45:29;;;;;;;4.85;1.73;;;17.10;85.80;;;;;;5064506;28;20028;-66
2021/09/01 01:47:54;;;;;;;4.65;1.65;;;17.10;85.80;;;;;;5063948;28;20028;-66
2021/09/01 01:50:20;;;;;;;7.28;2.38;;;17.20;85.90;;;;;;5043702;28;20025;-66
2021/09/01 01:52:45;;;;;;;4.72;2.05;;;17.20;85.90;;;;;;5026951;28;20217;-66
2021/09/01 01:55:11;;;;;;;3.30;1.50;;;17.20;85.90;;;;;;5063492;28;20036;-66
2021/09/01 01:57:37;;;;;;;3.55;1.48;;;17.20;85.80;;;;;;5055893;28;20020;-66
2021/09/01 02:00:05;;;;;;;4.88;1.45;;;17.20;85.70;;;;;;5057177;28;20108;-66
2021/09/01 02:02:32;;;;;;;6.32;1.70;;;17.20;85.80;;;;;;5059575;28;20009;-66
2021/09/01 02:04:58;;;;;;;5.13;1.45;;;17.20;85.80;;;;;;5061582;28;20368;-66
2021/09/01 02:07:24;;;;;;;4.38;1.70;;;17.20;85.70;;;;;;5062980;28;20021;-66
2021/09/01 02:09:49;;;;;;;4.53;1.38;;;17.20;85.60;;;;;;5064018;28;20060;-66
2021/09/01 02:12:15;;;;;;;4.72;1.80;;;17.20;85.70;;;;;;5044504;28;20048;-66
2021/09/01 02:14:40;;;;;;;7.60;1.85;;;17.20;85.80;;;;;;5051244;28;20021;-66
2021/09/01 02:17:06;;;;;;;3.80;1.48;;;17.10;85.70;;;;;;5064160;28;20384;-66
2021/09/01 02:19:31;;;;;;;5.18;2.03;;;17.10;85.70;;;;;;5064076;28;20365;-66
2021/09/01 02:21:57;;;;;;;5.03;1.52;;;17.20;85.70;;;;;;5058481;28;20070;-66
2021/09/01 02:24:23;;;;;;;5.15;1.80;;;17.10;85.60;;;;;;5063358;28;20027;-66
2021/09/01 02:26:48;;;;;;;6.22;1.92;;;17.20;85.70;;;;;;5071031;28;20016;-66
2021/09/01 02:29:14;;;;;;;7.90;2.03;;;17.20;85.60;;;;;;5065434;28;20021;-66
2021/09/01 02:31:39;;;;;;;5.90;1.65;;;17.10;85.60;;;;;;5062160;28;20099;-66
2021/09/01 02:34:05;;;;;;;5.78;2.22;;;17.20;85.60;;;;;;5062787;28;20476;-66
2021/09/01 02:36:30;;;;;;;6.30;2.25;;;17.10;85.50;;;;;;5062604;28;20059;-66
2021/09/01 02:38:56;;;;;;;6.93;2.15;;;17.10;85.50;;;;;;5036772;28;20046;-66
2021/09/01 02:41:23;;;;;;;7.30;2.50;;;17.00;85.50;;;;;;5041193;28;20025;-66
2021/09/01 02:43:50;;;;;;;5.85;2.20;;;17.00;85.40;;;;;;5040237;28;20041;-66
2021/09/01 02:46:16;;;;;;;4.72;1.90;;;17.00;85.30;;;;;;5042503;28;20017;-66
2021/09/01 02:48:42;;;;;;;5.78;1.85;;;17.00;85.30;;;;;;5043704;28;20029;-66
2021/09/01 02:51:08;;;;;;;4.25;1.73;;;17.00;85.30;;;;;;5041083;28;20116;-66
2021/09/01 02:53:33;;;;;;;4.75;1.70;;;17.00;85.10;;;;;;5041781;28;20096;-66
2021/09/01 02:55:59;;;;;;;5.20;1.75;;;17.10;85.00;;;;;;5045091;28;20515;-66
2021/09/01 02:58:25;;;;;;;6.15;1.90;;;17.00;85.00;;;;;;5041635;28;20082;-66
2021/09/01 03:00:50;;;;;;;8.13;2.15;;;17.10;85.00;;;;;;5037460;28;20481;-66
2021/09/01 03:03:16;;;;;;;5.18;1.63;;;17.10;84.90;;;;;;5041013;28;20021;-66
2021/09/01 03:05:41;;;;;;;4.20;1.52;;;17.00;84.90;;;;;;5039301;28;20559;-66
2021/09/01 03:08:08;;;;;;;4.93;2.03;;;17.00;84.90;;;;;;5040178;28;20026;-66
2021/09/01 03:10:33;;;;;;;5.47;1.90;;;17.00;85.00;;;;;;5036541;28;20128;-66
2021/09/01 03:12:59;;;;;;;5.32;1.90;;;17.00;84.90;;;;;;5045774;28;20028;-66
2021/09/01 03:15:25;;;;;;;6.43;2.13;;;17.00;84.90;;;;;;5045755;28;20473;-66
2021/09/01 03:17:50;;;;;;;5.47;2.38;;;16.90;84.90;;;;;;5039705;28;20477;-66
2021/09/01 03:20:16;;;;;;;5.50;1.90;;;16.90;84.80;;;;;;5042672;28;20036;-66
2021/09/01 03:22:41;;;;;;;4.95;1.92;;;16.90;84.80;;;;;;5039953;28;20401;-66
2021/09/01 03:25:08;;;;;;;7.15;1.70;;;16.90;84.70;;;;;;5044611;28;20036;-66
2021/09/01 03:27:33;;;;;;;6.53;2.28;;;16.90;84.60;;;;;;5040026;28;20014;-66
2021/09/01 03:29:59;;;;;;;5.55;2.00;;;16.90;84.60;;;;;;5039775;28;20036;-66
2021/09/01 03:32:24;;;;;;;5.10;1.70;;;16.90;84.50;;;;;;5045522;28;20025;-66
2021/09/01 03:34:50;;;;;;;6.10;1.73;;;16.90;84.50;;;;;;5043981;28;20025;-66
2021/09/01 03:37:16;;;;;;;5.50;1.95;;;16.90;84.50;;;;;;5042630;28;20499;-66
2021/09/01 03:39:41;;;;;;;4.65;1.63;;;16.90;84.40;;;;;;5060224;28;20049;-66
2021/09/01 03:42:07;;;;;;;5.55;2.00;;;16.90;84.30;;;;;;5062854;28;20512;-66
2021/09/01 03:44:32;;;;;;;6.95;1.48;;;16.90;84.30;;;;;;5064940;28;20040;-66
2021/09/01 03:46:58;;;;;;;4.43;1.50;;;16.90;84.30;;;;;;5055489;28;20036;-66
2021/09/01 03:49:24;;;;;;;8.38;2.22;;;17.00;84.40;;;;;;5059513;28;20032;-66
2021/09/01 03:51:49;;;;;;;6.75;1.73;;;17.00;84.30;;;;;;5072512;28;20028;-66
2021/09/01 03:54:15;;;;;;;7.15;1.90;;;17.00;84.20;;;;;;5074235;28;20025;-66
2021/09/01 03:56:41;;;;;;;5.85;1.85;;;17.00;84.20;;;;;;5069845;28;20017;-66
2021/09/01 03:59:07;;;;;;;5.80;1.95;;;17.00;84.10;;;;;;5074593;28;20112;-66
2021/09/01 04:01:33;;;;;;;6.07;1.85;;;17.00;84.10;;;;;;5074648;28;20021;-66
2021/09/01 04:04:03;;;;;;;4.72;1.73;;;16.90;84.10;;;;;;5051454;28;20055;-66
2021/09/01 04:06:29;;;;;;;4.57;1.83;;;17.00;84.10;;;;;;5074630;28;20016;-66
2021/09/01 04:08:54;;;;;;;4.47;2.28;;;17.00;84.10;;;;;;5056719;28;20083;-66
2021/09/01 04:11:20;;;;;;;5.80;1.85;;;17.00;84.40;;;;;;5069322;28;20380;-66
2021/09/01 04:13:45;;;;;;;6.03;2.20;;;16.90;84.30;;;;;;5074191;28;20498;-66
2021/09/01 04:16:11;;;;;;;4.57;1.83;;;16.90;84.30;;;;;;5056477;28;20048;-66
2021/09/01 04:18:36;;;;;;;5.00;1.65;;;17.00;84.40;;;;;;5071432;28;20024;-66
2021/09/01 04:21:02;;;;;;;5.07;2.17;;;16.90;84.30;;;;;;5073947;28;20029;-67
2021/09/01 04:23:29;;;;;;;6.50;1.60;;;16.90;84.60;;;;;;5074192;28;20133;-66
2021/09/01 04:25:54;;;;;;;6.22;2.00;;;16.90;84.80;;;;;;5053481;28;20427;-66
2021/09/01 04:28:20;;;;;;;5.13;1.98;;;16.90;84.90;;;;;;5073949;28;20024;-66
2021/09/01 04:30:46;;;;;;;5.43;2.30;;;16.80;84.90;;;;;;5068699;28;20020;-66
2021/09/01 04:33:11;;;;;;;4.03;2.03;;;16.80;85.00;;;;;;5070944;28;20025;-66
2021/09/01 04:35:37;;;;;;;6.70;2.17;;;16.80;85.20;;;;;;5073661;28;20021;-66
2021/09/01 04:38:03;;;;;;;5.95;1.80;;;16.90;85.30;;;;;;5073856;28;20036;-66
2021/09/01 04:40:29;;;;;;;5.80;1.83;;;16.80;85.30;;;;;;5073997;28;20032;-66
2021/09/01 04:42:54;;;;;;;4.55;1.70;;;16.80;85.40;;;;;;5073624;28;20047;-66
2021/09/01 04:45:25;;;;;;;5.18;2.08;;;16.80;85.50;;;;;;5055964;28;20038;-66
2021/09/01 04:47:50;;;;;;;5.75;2.22;;;16.80;85.50;;;;;;5070950;28;20483;-66
2021/09/01 04:50:16;;;;;;;6.35;2.20;;;16.80;85.60;;;;;;5073634;28;20032;-66
2021/09/01 04:52:41;;;;;;;6.57;2.17;;;16.80;85.80;;;;;;5070188;28;20074;-66
2021/09/01 04:55:08;;;;;;;5.95;2.10;;;16.80;86.00;;;;;;5071628;28;20392;-66
2021/09/01 04:57:34;;;;;;;4.75;1.80;;;16.70;86.10;;;;;;5073364;28;20480;-66
2021/09/01 04:59:59;;;;;;;3.58;1.58;;;16.80;86.40;;;;;;5070706;28;20054;-66
2021/09/01 05:02:25;;;;;;;5.75;1.92;;;16.70;86.50;;;;;;5073476;28;20024;-66
2021/09/01 05:04:51;;;;;;;4.18;1.60;;;16.70;86.60;;;;;;5073386;28;20077;-66
2021/09/01 05:07:16;;;;;;;5.63;1.67;;;16.80;86.90;;;;;;5073212;28;20020;-66
2021/09/01 05:09:42;;;;;;;4.45;1.45;;;16.70;86.90;;;;;;5073428;28;20070;-66
2021/09/01 05:12:08;;;;;;;4.13;2.13;;;16.70;87.00;;;;;;5055333;28;20481;-66
2021/09/01 05:14:33;;;;;;;8.30;2.28;;;16.70;87.10;;;;;;5070428;28;20040;-66
2021/09/01 05:16:59;;;;;;;5.10;2.08;;;16.70;87.00;;;;;;5055961;28;20032;-66
2021/09/01 05:19:24;;;;;;;7.53;2.13;;;16.70;87.00;;;;;;5073810;28;20028;-66
2021/09/01 05:21:52;;;;;;;5.05;1.90;;;16.60;87.30;;;;;;5073860;28;20534;-66
2021/09/01 05:24:49;;;;;;;5.38;2.00;;;16.60;87.60;;;;;;5073893;28;20035;-66
2021/09/01 05:27:21;;;;;;;7.68;2.00;;;16.60;87.70;;;;;;5067772;28;20443;-66
2021/09/01 05:29:48;;;;;;;5.32;2.08;;;16.50;88.10;;;;;;5073908;28;20051;-65
2021/09/01 05:32:22;;;;;;;4.45;1.70;;;16.50;88.30;;;;;;5073651;28;20028;-66
2021/09/01 05:34:50;;;;;;;3.97;1.85;;;16.60;88.30;;;;;;5073661;28;20024;-66
2021/09/01 05:37:16;;;;;;;6.68;1.90;;;16.60;88.30;;;;;;5073531;28;20033;-66
2021/09/01 05:39:45;;;;;;;6.80;2.08;;;16.60;88.40;;;;;;5059912;28;20140;-66
2021/09/01 05:42:13;;;;;;;5.22;1.95;;;16.60;88.50;;;;;;5035424;28;20029;-66
2021/09/01 05:44:40;;;;;;;3.85;1.80;;;16.60;88.50;;;;;;5053238;28;20086;-66
2021/09/01 05:47:11;;;;;;;4.40;1.65;;;16.70;88.70;;;;;;5053474;28;20415;-66
2021/09/01 05:49:38;;;;;;;10.88;3.38;;;16.70;88.80;;;;;;5053231;28;20029;-66
2021/09/01 05:52:07;;;;;;;6.70;1.85;;;16.70;88.90;;;;;;5035399;28;20031;-66
2021/09/01 05:54:33;;;;;;;3.17;1.35;;;16.70;88.90;;;;;;5053336;28;20025;-65
2021/09/01 05:57:09;;;;;;;3.38;1.65;;;16.70;89.00;;;;;;5053158;28;20113;-66
2021/09/01 05:59:56;;;;;;;4.57;1.60;;;16.80;89.20;;;;;;5064560;28;20029;-66
2021/09/01 06:02:30;;;;;;;3.95;1.70;;;16.80;89.30;;;;;;5069502;28;20021;-66
2021/09/01 06:04:58;;;;;;;4.38;1.30;;;16.70;89.60;;;;;;5072398;28;20040;-65
2021/09/01 06:07:27;;;;;;;3.22;1.58;;;16.70;89.80;;;;;;5072130;28;20388;-66
2021/09/01 06:09:57;;;;;;;4.10;1.60;;;16.70;89.90;;;;;;5071262;28;20047;-65
2021/09/01 06:12:25;;;;;;;5.25;1.92;;;16.80;90.00;;;;;;5072075;28;20025;-65
2021/09/01 06:14:50;;;;;;;5.05;1.67;;;16.80;90.10;;;;;;5055142;28;20156;-66
2021/09/01 06:17:16;;;;;;;4.07;1.65;;;16.80;90.10;;;;;;5055056;28;20500;-65
2021/09/01 06:19:41;;;;;;;4.85;1.95;;;16.80;90.10;;;;;;5072867;28;20036;-66
2021/09/01 06:22:07;;;;;;;5.50;1.58;;;16.90;90.10;;;;;;5072817;28;20140;-66
2021/09/01 06:24:33;;;;;;;5.82;1.58;;;16.90;90.10;;;;;;5069193;28;20016;-66
2021/09/01 06:27:00;;;;;;;4.65;1.90;;;16.90;90.10;;;;;;5072504;28;20024;-66
2021/09/01 06:29:27;;;;;;;4.60;1.80;;;16.80;90.20;;;;;;5072957;28;20108;-66
2021/09/01 06:31:54;;;;;;;4.97;2.25;;;16.90;90.20;;;;;;5072885;28;20049;-65
2021/09/01 06:34:19;;;;;;;7.82;2.17;;;16.90;90.20;;;;;;5072117;28;20020;-66
2021/09/01 06:36:45;;;;;;;4.20;2.13;;;16.90;90.20;;;;;;5069458;28;20506;-66
2021/09/01 06:39:11;;;;;;;6.30;1.85;;;16.90;90.10;;;;;;5054545;28;20052;-65
2021/09/01 06:41:37;;;;;;;5.25;2.03;;;16.90;90.10;;;;;;5072608;28;20040;-66
2021/09/01 06:44:03;;;;;;;5.63;1.70;;;17.00;90.20;;;;;;5072583;28;20488;-66
2021/09/01 06:46:28;;;;;;;6.00;1.83;;;17.00;90.20;;;;;;5072771;28;20017;-66
2021/09/01 06:48:54;;;;;;;5.03;1.83;;;17.10;90.20;;;;;;5072667;28;20056;-66
2021/09/01 06:51:19;;;;;;;5.60;1.85;;;17.10;90.30;;;;;;5072390;28;20074;-66
2021/09/01 06:53:45;;;;;;;4.55;1.80;;;17.10;90.30;;;;;;5055834;28;20035;-66
2021/09/01 06:56:10;;;;;;;3.80;1.83;;;17.10;90.20;;;;;;5034374;28;20496;-66
2021/09/01 06:58:36;;;;;;;3.88;1.63;;;17.20;90.20;;;;;;5050382;28;20061;-66
2021/09/01 07:01:03;;;;;;;4.78;2.08;;;17.20;90.10;;;;;;5049725;28;20057;-66
2021/09/01 07:03:29;;;;;;;6.03;2.45;;;17.20;90.00;;;;;;5059934;28;20066;-66
2021/09/01 07:05:54;;;;;;;7.53;2.78;;;17.30;90.00;;;;;;5049235;28;20029;-66
2021/09/01 07:08:23;;;;;;;9.32;2.67;;;17.30;89.90;;;;;;5052260;28;20029;-66
2021/09/01 07:10:50;;;;;;;5.30;2.30;;;17.30;89.80;;;;;;5052345;28;20059;-66
2021/09/01 07:13:16;;;;;;;6.80;2.50;;;17.40;89.60;;;;;;5052136;28;20397;-66
2021/09/01 07:15:43;;;;;;;5.88;2.28;;;17.40;89.40;;;;;;5052321;28;20569;-67
2021/09/01 07:18:09;;;;;;;4.65;2.42;;;17.40;89.10;;;;;;5052088;28;20117;-66
2021/09/01 07:20:34;;;;;;;6.93;2.15;;;17.40;88.80;;;;;;5052312;28;20107;-67
2021/09/01 07:23:00;;;;;;;6.05;2.63;;;17.50;88.80;;;;;;5061355;28;20038;-66
2021/09/01 07:25:26;;;;;;;8.88;2.63;;;17.50;88.60;;;;;;5072724;28;20025;-66
2021/09/01 07:27:52;;;;;;;7.25;3.35;;;17.50;88.40;;;;;;5075471;28;20044;-67
2021/09/01 07:30:17;;;;;;;6.53;2.55;;;17.60;88.30;;;;;;5074488;28;20031;-66
2021/09/01 07:32:43;;;;;;;5.63;2.75;;;17.60;88.20;;;;;;5075233;28;20057;-66
2021/09/01 07:35:09;;;;;;;5.45;3.50;;;17.60;88.00;;;;;;5057490;28;20031;-66
2021/09/01 07:37:45;;;;;;;8.23;3.05;;;17.70;88.00;;;;;;5069400;28;20027;-66
2021/09/01 07:40:12;;;;;;;7.05;2.65;;;17.70;87.90;;;;;;5074875;28;20040;-66
2021/09/01 07:42:38;;;;;;;10.07;3.08;;;17.80;87.70;;;;;;5019462;28;20592;-66
2021/09/01 07:45:04;;;;;;;6.72;3.15;;;17.80;87.50;;;;;;5025865;28;20107;-66
2021/09/01 07:47:29;;;;;;;8.65;3.15;;;17.80;87.30;;;;;;5033025;28;20033;-66
2021/09/01 07:49:55;;;;;;;7.93;3.30;;;17.90;87.20;;;;;;5069150;28;20468;-66
2021/09/01 07:52:20;;;;;;;6.80;3.63;;;18.00;87.00;;;;;;5071104;28;20104;-66
2021/09/01 07:54:46;;;;;;;6.90;2.97;;;17.90;86.80;;;;;;5073103;28;20059;-66
2021/09/01 07:57:12;;;;;;;6.32;2.95;;;18.00;86.70;;;;;;5069399;28;20025;-66
2021/09/01 07:59:37;;;;;;;5.15;2.80;;;18.10;86.60;;;;;;5074741;28;20036;-66
2021/09/01 08:02:03;;;;;;;5.55;2.63;;;18.10;87.00;;;;;;5074650;28;20491;-66
2021/09/01 08:04:28;;;;;;;8.25;2.67;;;18.10;86.20;;;;;;5039882;28;20388;-66
2021/09/01 08:06:54;;;;;;;4.70;2.17;;;18.20;86.00;;;;;;5068930;28;20020;-66
2021/09/01 08:09:20;;;;;;;4.18;2.05;;;18.20;85.80;;;;;;5056638;28;20161;-66
2021/09/01 08:11:46;;;;;;;4.82;2.47;;;18.20;85.70;;;;;;5069198;28;20024;-66
2021/09/01 08:14:11;;;;;;;5.18;2.50;;;18.30;85.60;;;;;;5056296;28;20035;-66
2021/09/01 08:16:37;;;;;;;8.13;3.03;;;18.30;85.30;;;;;;5056366;28;20028;-66
2021/09/01 08:19:03;;;;;;;6.65;3.08;;;18.40;84.90;;;;;;5062083;28;20037;-66
2021/09/01 08:21:28;;;;;;;8.35;2.53;;;18.40;84.70;;;;;;5072965;28;20099;-66
2021/09/01 08:23:54;;;;;;;5.57;2.05;;;18.40;84.70;;;;;;5074057;28;20060;-64
2021/09/01 08:26:19;;;;;;;6.35;2.13;;;18.50;84.80;;;;;;5068752;28;20353;-65
2021/09/01 08:28:45;;;;;;;4.57;2.20;;;18.50;84.60;;;;;;5074974;28;20150;-65
2021/09/01 08:31:11;;;;;;;4.90;2.08;;;18.50;84.40;;;;;;5074961;28;20024;-65
2021/09/01 08:33:37;;;;;;;4.80;2.25;;;18.60;84.30;;;;;;5074645;28;20035;-65
2021/09/01 08:36:04;;;;;;;4.88;2.03;;;18.60;84.20;;;;;;5074168;28;20060;-65
2021/09/01 08:38:29;;;;;;;6.50;2.30;;;18.60;84.10;;;;;;5056061;28;20268;-65
2021/09/01 08:40:55;;;;;;;5.20;1.88;;;18.70;84.00;;;;;;5056338;28;20021;-65
2021/09/01 08:43:21;;;;;;;5.63;1.95;;;18.80;83.70;;;;;;5074461;28;20099;-66
2021/09/01 08:45:49;;;;;;;5.57;2.13;;;18.80;83.30;;;;;;5074730;28;20026;-65
2021/09/01 08:48:16;;;;;;;7.00;2.28;;;18.90;82.70;;;;;;5056607;28;20107;-65
2021/09/01 08:50:42;;;;;;;6.10;1.52;;;18.90;82.40;;;;;;5074529;28;20039;-65
2021/09/01 08:53:07;;;;;;;4.78;1.52;;;19.00;82.30;;;;;;5062416;28;20124;-65
2021/09/01 08:55:33;;;;;;;4.55;1.30;;;19.20;82.00;;;;;;5054450;28;20473;-65
2021/09/01 08:58:00;;;;;;;6.15;1.70;;;19.30;81.60;;;;;;5054431;28;20442;-65
2021/09/01 09:00:26;;;;;;;5.85;1.73;;;19.40;81.90;;;;;;5054267;28;20037;-65
2021/09/01 09:02:57;;;;;;;3.08;1.08;;;19.60;81.10;;;;;;5054208;28;20021;-65
2021/09/01 09:05:45;;;;;;;4.95;1.77;;;19.60;80.80;;;;;;5053886;28;20028;-65
2021/09/01 09:08:12;;;;;;;3.72;1.63;;;19.70;80.10;;;;;;5054162;28;20021;-65
2021/09/01 09:10:46;;;;;;;5.55;2.38;;;19.80;80.00;;;;;;5054123;28;20064;-65
2021/09/01 09:13:15;;;;;;;6.78;2.20;;;19.80;78.90;;;;;;5053880;28;20032;-65
2021/09/01 09:15:42;;;;;;;7.30;1.90;;;19.80;78.50;;;;;;5054036;28;20021;-65
2021/09/01 09:18:29;;;;;;;4.55;1.77;;;19.90;78.70;;;;;;5035704;28;20496;-65
2021/09/01 09:21:33;;;;;;;4.55;1.67;;;20.00;78.30;;;;;;5054006;28;20492;-65
2021/09/01 09:23:59;;;;;;;8.32;1.70;;;20.10;78.10;;;;;;5012712;28;20083;-65
2021/09/01 09:26:31;;;;;;;5.38;1.27;;;20.10;78.00;;;;;;5063641;28;20024;-65
2021/09/01 09:29:09;;;;;;;2.72;1.10;;;20.20;77.70;;;;;;5073410;28;20028;-66
2021/09/01 09:31:35;;;;;;;1.92;1.10;;;20.30;77.60;;;;;;5073854;28;20021;-65
2021/09/01 09:34:20;;;;;;;3.30;1.20;;;20.30;78.30;;;;;;5073366;28;20031;-67
2021/09/01 09:37:04;;;;;;;3.67;1.25;;;20.40;77.40;;;;;;5073618;28;20025;-66
2021/09/01 09:39:51;;;;;;;5.80;1.88;;;20.40;76.90;;;;;;5073335;28;20048;-65
2021/09/01 09:42:36;;;;;;;5.13;1.77;;;20.40;76.70;;;;;;5073347;28;20090;-65
2021/09/01 09:45:36;;;;;;;3.83;1.52;;;20.40;76.50;;;;;;5054578;28;20027;-65
2021/09/01 09:48:02;;;;;;;6.70;2.28;;;20.40;76.10;;;;;;5056846;28;20021;-65
2021/09/01 09:50:28;;;;;;;3.15;1.67;;;20.30;76.00;;;;;;5053439;28;20021;-65
2021/09/01 09:52:53;;;;;;;3.95;1.75;;;20.30;76.10;;;;;;5053283;28;20021;-65
2021/09/01 09:55:21;;;;;;;4.97;1.38;;;20.40;75.90;;;;;;5032137;28;20947;-66
2021/09/01 09:57:56;;;;;;;6.88;2.05;;;20.50;75.70;;;;;;5053385;28;20477;-66
2021/09/01 10:00:24;;;;;;;4.95;1.40;;;20.60;75.40;;;;;;5053041;28;20033;-65
2021/09/01 10:02:50;;;;;;;5.07;1.45;;;20.60;75.40;;;;;;5052931;28;20316;-66
2021/09/01 10:05:17;;;;;;;7.32;1.95;;;20.70;75.30;;;;;;5053105;28;20083;-66
2021/09/01 10:07:44;;;;;;;5.68;1.60;;;20.60;75.00;;;;;;5053183;28;20059;-65
2021/09/01 10:10:11;;;;;;;4.35;1.20;;;20.60;74.90;;;;;;5041968;28;20408;-65
2021/09/01 10:12:39;;;;;;;6.13;1.60;;;20.60;75.00;;;;;;5072672;28;20028;-66
2021/09/01 10:15:08;;;;;;;8.80;1.90;;;20.70;74.90;;;;;;5073256;28;20085;-66
2021/09/01 10:17:41;;;;;;;3.60;1.15;;;20.80;74.60;;;;;;5071899;28;20059;-66
2021/09/01 10:20:15;;;;;;;3.78;1.50;;;20.90;74.40;;;;;;5066392;28;20134;-65
2021/09/01 10:22:41;;;;;;;3.28;1.55;;;21.00;74.10;;;;;;5072816;28;20108;-65
2021/09/01 10:25:07;;;;;;;3.28;1.40;;;21.10;73.90;;;;;;5072602;28;20540;-66
2021/09/01 10:27:33;;;;;;;4.15;1.88;;;21.20;73.70;;;;;;5055079;28;20074;-66
2021/09/01 10:30:14;;;;;;;4.50;1.52;;;21.20;73.50;;;;;;5072743;28;20033;-65
2021/09/01 10:32:45;;;;;;;4.22;2.00;;;21.20;73.30;;;;;;5055157;28;20035;-66
2021/09/01 10:35:11;;;;;;;4.32;1.60;;;21.30;74.20;;;;;;5072584;28;20588;-66
2021/09/01 10:37:44;;;;;;;4.22;1.40;;;21.30;73.40;;;;;;5072843;28;20025;-65
2021/09/01 10:40:12;;;;;;;4.82;1.70;;;21.50;73.20;;;;;;5071324;28;20040;-65
2021/09/01 10:42:42;;;;;;;7.13;2.15;;;21.60;72.70;;;;;;5054565;28;20025;-65
2021/09/01 10:45:31;;;;;;;3.75;1.67;;;21.80;71.90;;;;;;5066530;28;20024;-66
2021/09/01 10:48:07;;;;;;;9.98;2.03;;;22.00;71.40;;;;;;5031858;28;20033;-66
2021/09/01 10:50:44;;;;;;;5.25;2.00;;;22.20;71.00;;;;;;5032267;28;20108;-66
2021/09/01 10:53:25;;;;;;;4.03;1.63;;;22.40;70.40;;;;;;5033925;28;20541;-66
2021/09/01 10:55:58;;;;;;;5.18;1.42;;;22.50;69.80;;;;;;5034199;28;20503;-66
2021/09/01 10:58:24;;;;;;;4.25;1.40;;;22.60;69.60;;;;;;5048567;28;20029;-66
2021/09/01 11:00:58;;;;;;;4.97;1.42;;;22.60;69.50;;;;;;5036115;28;20018;-66
2021/09/01 11:03:29;;;;;;;4.32;1.83;;;22.70;69.00;;;;;;5037243;28;20029;-65
2021/09/01 11:05:54;;;;;;;5.75;1.58;;;22.60;68.70;;;;;;5045219;28;20024;-66
2021/09/01 11:08:20;;;;;;;5.15;1.48;;;22.60;68.90;;;;;;5028779;28;20032;-65
2021/09/01 11:10:56;;;;;;;4.43;1.45;;;22.60;69.00;;;;;;5045426;28;20108;-66
2021/09/01 11:13:37;;;;;;;5.90;2.08;;;22.60;69.10;;;;;;5042853;28;20163;-66
2021/09/01 11:16:03;;;;;;;5.65;2.53;;;22.60;69.30;;;;;;5046591;28;20808;-66
2021/09/01 11:18:55;;;;;;;6.82;1.60;;;22.50;69.10;;;;;;5033598;28;20048;-66
2021/09/01 11:21:52;;;;;;;4.75;1.85;;;22.50;69.20;;;;;;5022866;28;20108;-65
2021/09/01 11:24:19;;;;;;;3.53;1.58;;;22.40;69.30;;;;;;5039442;28;20037;-66
2021/09/01 11:26:46;;;;;;;5.60;1.50;;;22.30;69.70;;;;;;5043506;28;20033;-66
2021/09/01 11:29:12;;;;;;;3.92;1.67;;;22.30;69.70;;;;;;5043852;28;20056;-66
2021/09/01 11:32:33;;;;;;;;;;;;;;;;;;;;;
2021/09/01 11:35:04;;;;;;;5.45;1.70;;;22.20;69.30;;;;;;5027797;28;20401;-66
2021/09/01 11:37:29;;;;;;;4.57;1.55;;;22.20;69.90;;;;;;5035822;28;20022;-66
2021/09/01 11:39:55;;;;;;;4.00;2.05;;;22.20;69.80;;;;;;5035864;28;20444;-66
2021/09/01 11:42:20;;;;;;;4.95;1.70;;;22.20;69.40;;;;;;5035527;28;20113;-66
2021/09/01 11:44:56;;;;;;;7.40;1.98;;;22.20;69.40;;;;;;5035779;28;20033;-66
2021/09/01 11:47:22;;;;;;;3.83;1.55;;;22.20;69.40;;;;;;5034596;28;20025;-66
2021/09/01 11:49:50;;;;;;;5.80;1.90;;;22.20;69.60;;;;;;5035620;28;20043;-66
2021/09/01 11:52:25;;;;;;;4.30;1.50;;;22.20;69.60;;;;;;5039283;28;20021;-66
2021/09/01 11:54:52;;;;;;;6.10;1.70;;;22.30;69.60;;;;;;5037589;28;20492;-66
2021/09/01 11:57:25;;;;;;;5.35;1.70;;;22.20;69.80;;;;;;5055337;28;20068;-66
2021/09/01 11:59:50;;;;;;;4.25;1.58;;;22.20;69.90;;;;;;5055477;28;20477;-66
2021/09/01 12:02:28;;;;;;;4.82;1.73;;;22.30;69.80;;;;;;5055300;28;20029;-66
2021/09/01 12:04:54;;;;;;;3.55;1.77;;;22.30;69.40;;;;;;5055618;28;20100;-66
2021/09/01 12:07:29;;;;;;;6.80;1.48;;;22.40;69.20;;;;;;5036893;28;20017;-66
2021/09/01 12:09:57;;;;;;;8.38;2.00;;;22.40;69.00;;;;;;5055277;28;20025;-66
2021/09/01 12:12:23;;;;;;;4.57;1.80;;;22.40;69.00;;;;;;5054990;28;20025;-66
2021/09/01 12:14:48;;;;;;;4.50;1.67;;;22.50;69.10;;;;;;5055138;28;20036;-66
2021/09/01 12:17:23;;;;;;;3.85;1.27;;;22.50;69.10;;;;;;5054989;28;20082;-66
2021/09/01 12:19:51;;;;;;;3.28;1.70;;;22.50;68.70;;;;;;5055176;28;20040;-66
2021/09/01 12:22:37;;;;;;;3.50;1.25;;;22.60;68.90;;;;;;5055130;28;20028;-66
2021/09/01 12:25:24;;;;;;;3.17;1.48;;;22.70;68.70;;;;;;5055129;28;20048;-66
2021/09/01 12:28:09;;;;;;;4.57;1.77;;;22.60;68.60;;;;;;5054880;28;20017;-66
2021/09/01 12:30:39;;;;;;;3.72;1.63;;;22.60;68.30;;;;;;5054994;28;20045;-66
2021/09/01 12:33:11;;;;;;;4.47;1.55;;;22.60;68.30;;;;;;5054774;28;20033;-66
2021/09/01 12:35:37;;;;;;;3.03;1.33;;;22.70;67.80;;;;;;5054790;28;20045;-66
2021/09/01 12:38:05;;;;;;;4.10;1.80;;;22.70;68.00;;;;;;5054472;28;20508;-66
2021/09/01 12:40:36;;;;;;;2.73;1.13;;;22.70;67.90;;;;;;5054704;28;20116;-66
2021/09/01 12:43:08;;;;;;;3.35;1.45;;;22.70;68.00;;;;;;5054451;28;20751;-66
2021/09/01 12:45:35;;;;;;;3.10;1.42;;;22.70;67.60;;;;;;5054663;28;20049;-66
2021/09/01 12:48:04;;;;;;;4.63;1.42;;;22.70;67.50;;;;;;5054562;28;20523;-66
2021/09/01 12:50:32;;;;;;;3.05;1.25;;;22.70;67.10;;;;;;5054448;28;20041;-66
2021/09/01 12:52:58;;;;;;;2.33;1.30;;;22.70;67.20;;;;;;5054417;28;20021;-66
2021/09/01 12:55:46;;;;;;;2.83;1.10;;;22.60;67.20;;;;;;5036524;28;20036;-66
2021/09/01 12:58:12;;;;;;;4.65;1.33;;;22.60;67.20;;;;;;5054537;28;20025;-66